Pagrindinis puslapis
METAR-TAF:

METAR-TAF

Oro uostai :

Roma, Italija

platuma: 41-57N, ilguma: 012-30E, Aukštis: 18 m

Dabartinis oras

Ataskaita buvo paskelbta 5 valandos ir 27 minutes, ne 15:50 UTC
Vėjas 5 kt iš Pietvakarių
Temperatūra 13°C
Drėgmė 72%
Slėgis 1020 hPa
Matomumas 10 km arba daugiau
Išsisklaidę debesys ne aukštis 3000 ft
Su prošvaistėmis ne aukštis 4000 ft
lietus

METAR: LIRU 271550Z 22005KT 9999 RA SCT030 BKN040 13/08 Q1020

Laikas: 22:17 (21:17 UTC)

Prognozė

Ataskaita buvo paskelbta 7 valandos ir 17 minutes, ne 14:00 UTC
Prognozė galioja nuo 27 metu 15 UTC su 27 metu 24 UTC
Vėjas 5 kt nuo kintamojo kryptimis
Matomumas: 6000 m
Mažai debesys ne aukštis 2000 ft

TAF: LIRU 271400Z 2715/2724 VRB05KT 6000 FEW020

Orai ataskaitas ir orų prognozės (METAR, TAF).

turimą stotys yra geltonos ir raudonos taškus žemėlapyje.

Perkelti pele per norėdami pamatyti stoties vardą.

Tada spustelėkite, norėdami matyti oro stebėjimo ir prognozės.

Norėdami pakeisti žemėlapį: spustelėkite ant žalios mygtukų su juodo kryžiaus žemyn,; žalią mygtuką su brūkšneliu, jei norite nutolinti; arba žalių rodyklių gretimoms žemėlapius.


METAR-TAF: